Arboles, CO (81121)

9:19 AM MDT on April 25, 2017 (GMT -0600)
Chimney Rock | | Change Station

Elev 6457 ft 37.20 °N, 107.34 °W | Updated 7 minutes ago

Overcast
Overcast
40.8 °F
Feels Like 41 °F
N
0.0
Wind Variable Wind from West
Gusts 1.0 mph

Today
High -- | Low -- °F
--% Chance of Precip.
Yesterday
High -- | Low -- °F
Precip. -- in
Pressure 29.59 in
Visibility 10.0 miles
Clouds Overcast 6000 ft
Windchill 41 °F
Dew Point 37 °F
Humidity 87%
Rainfall 0.05 in
Snow Depth Not available.
6:21 AM 7:53 PM
Waning Crescent, 1% visible
METAR KDRO 251453Z AUTO 24008KT 10SM OVC060 06/00 A2969 RMK AO2 RAB02E23 SLP018 P0000 60000 T00610000 51013
Pressure 29.59 in
Visibility 10.0 miles
Clouds Overcast 6000 ft
Windchill 41 °F
Dew Point 37 °F
Humidity 87%
Rainfall 0.05 in
Snow Depth Not available.
6:21 AM 7:53 PM
Waning Crescent, 1% visible
METAR KDRO 251453Z AUTO 24008KT 10SM OVC060 06/00 A2969 RMK AO2 RAB02E23 SLP018 P0000 60000 T00610000 51013

Get Severe Weather Alerts

Thanks for signing up!

Be on the lookout for a verification email in your inbox.

You'll start receiving the daily forecast at 8 AM.

×

10-Day Weather Forecast

Almanac

Astronomy

Apr. 25, 2017 Rise Set
Actual Time
Civil Twilight
Nautical Twilight
Astronomical Twilight
Moon
Length of Visible Light
Length of Day
Tomorrow will be .
, % of the Moon is Illuminated

Today's Extremes

State Highs State Lows

Community

WunderPhotos

WunderBlog® & News

Nearby

Air Quality

  Air Quality AQ Index Pollutant
Not available.

Snow Depth

Station Depth Elevation

Earthquake Activity

City Distance Mag. Time & Date
Minimum magnitude displayed is 2.5.

Coastal Water Temperatures

Place Temperature

Stations

Nearby Weather Stations

Station Location Temp. Windchill Dew Point Humidity Wind Precip. Elev Updated Type
                   

Watches & Warnings

There are currently no watches in effect.